ESOE

Örebro Airport

Örebro, Sweden
METAR ESOE 231550Z 04008KT 9999 SCT023 BKN064 M03/M06 Q1031
Observed Flight Rules
Feb-23 @ 15:50 UTC (46 minutes ago) Visual Flight Rules
Wind Visibility Clouds
40° at 8 knots 10,000+ meters
  • Scattered at 2,300' AGL
  • Broken at 6,400' AGL
Temperatures Readings
Current -3°C / 27°F
Dewpoint -6°C / 21°F
Humidity 80%
Altimeter 30.44" Hg
Pressure 1031 hPa
Elevation 57
METAR ESOE 231550Z 04008KT 9999 SCT023 BKN064 M03/M06 Q1031
Observed Flight Rules
Feb-23 @ 15:50 UTC
(46 minutes ago)
VFR
Wind Visibility
40° at 8 knots 10,000+ meters
Clouds
  • Scattered at 2,300' AGL
  • Broken at 6,400' AGL
Temperature Dewpoint
-3°C / 27°F -6°C / 21°F
Humidity Altimeter Pressure
80% 30.44" Hg 1031 hPa